Time;durP1;ratioP1;P1;durP2;ratioP2;P2;SDS_P1;SDS_P2;PMS_P1;PMS_P2;Temp;Humidity;BMP_temperature;BMP_pressure;BME280_temperature;BME280_humidity;BME280_pressure;Samples;Min_cycle;Max_cycle;Signal;HPM_P1;HPM_P2
2022/05/20 00:02:25;;;;;;;0.00;0.00;;;;;;;16.71;63.92;102303.69;5061959;28;20529;-83
2022/05/20 00:04:51;;;;;;;0.10;0.10;;;;;;;16.72;63.61;102302.78;5055096;28;20124;-84
2022/05/20 00:07:17;;;;;;;0.10;0.10;;;;;;;16.72;64.36;102289.41;5066279;28;20445;-84
2022/05/20 00:09:43;;;;;;;0.10;0.10;;;;;;;16.71;64.44;102299.25;5065681;28;20078;-84
2022/05/20 00:12:10;;;;;;;0.00;0.00;;;;;;;16.73;64.37;102300.06;5059893;28;20028;-84
2022/05/20 00:14:36;;;;;;;0.75;0.75;;;;;;;16.74;64.66;102290.28;5051112;28;20044;-82
2022/05/20 00:17:05;;;;;;;0.15;0.15;;;;;;;16.75;64.79;102297.38;5063562;28;20029;-83
2022/05/20 00:19:32;;;;;;;1.95;0.65;;;;;;;16.73;65.08;102301.88;5074148;28;20459;-84
2022/05/20 00:21:58;;;;;;;0.00;0.00;;;;;;;16.70;64.64;102308.19;5051852;28;20033;-83
2022/05/20 00:24:24;;;;;;;0.10;0.10;;;;;;;16.66;64.72;102306.50;5057142;28;20035;-83
2022/05/20 00:26:50;;;;;;;0.20;0.20;;;;;;;16.61;64.78;102298.56;5063107;28;20034;-83
2022/05/20 00:29:17;;;;;;;0.20;0.20;;;;;;;16.58;64.82;102311.13;5058640;28;20033;-83
2022/05/20 00:31:45;;;;;;;0.10;0.10;;;;;;;16.55;64.72;102313.84;5060360;28;20072;-84
2022/05/20 00:34:11;;;;;;;0.25;0.25;;;;;;;16.54;64.80;102309.44;5055361;28;20025;-83
2022/05/20 00:36:37;;;;;;;0.00;0.00;;;;;;;16.49;64.62;102306.88;5051495;28;20504;-84
2022/05/20 00:39:04;;;;;;;0.00;0.00;;;;;;;16.46;64.53;102302.47;5057367;28;20061;-83
2022/05/20 00:41:30;;;;;;;0.57;0.57;;;;;;;16.42;64.52;102300.75;5058310;28;20048;-84
2022/05/20 00:43:58;;;;;;;0.45;0.45;;;;;;;16.39;64.64;102303.50;5054996;28;20036;-83
2022/05/20 00:46:26;;;;;;;0.20;0.20;;;;;;;16.38;64.73;102299.06;5063664;28;20039;-84
2022/05/20 00:49:01;;;;;;;0.30;0.30;;;;;;;16.41;65.02;102299.00;5053815;28;20054;-83
2022/05/20 00:51:33;;;;;;;0.10;0.10;;;;;;;16.38;64.83;102293.72;5057897;28;20396;-84
2022/05/20 00:54:06;;;;;;;0.20;0.20;;;;;;;16.40;64.83;102307.03;5051436;28;20056;-83
2022/05/20 00:56:40;;;;;;;0.10;0.10;;;;;;;16.38;64.76;102299.06;5056612;28;20017;-83
2022/05/20 00:59:12;;;;;;;1.00;0.85;;;;;;;16.33;64.67;102300.94;5053050;28;20059;-84
2022/05/20 01:01:38;;;;;;;33.35;1.70;;;;;;;16.31;64.45;102292.97;5057055;28;20106;-84
2022/05/20 01:04:05;;;;;;;0.00;0.00;;;;;;;16.32;64.95;102284.03;5068064;28;20029;-84
2022/05/20 01:06:32;;;;;;;0.05;0.05;;;;;;;16.33;64.46;102285.78;5058153;28;20508;-84
2022/05/20 01:08:58;;;;;;;0.10;0.10;;;;;;;16.36;64.91;102290.19;5048387;28;20059;-84
2022/05/20 01:11:26;;;;;;;4.72;3.60;;;;;;;16.37;65.17;102283.91;5051588;28;20032;-83
2022/05/20 01:13:52;;;;;;;0.10;0.10;;;;;;;16.38;65.35;102287.50;5054203;28;20036;-84
2022/05/20 01:16:19;;;;;;;0.10;0.10;;;;;;;16.37;65.07;102285.72;5052888;28;20059;-83
2022/05/20 01:18:46;;;;;;;0.45;0.45;;;;;;;16.35;65.01;102277.75;5049054;28;20052;-84
2022/05/20 01:21:14;;;;;;;0.47;0.47;;;;;;;16.32;64.99;102283.13;5049776;28;20033;-83
2022/05/20 01:23:40;;;;;;;0.00;0.00;;;;;;;16.28;64.76;102270.75;5059609;28;20071;-83
2022/05/20 01:26:07;;;;;;;0.20;0.20;;;;;;;16.25;64.52;102271.69;5049328;28;20032;-83
2022/05/20 01:28:34;;;;;;;0.10;0.10;;;;;;;16.21;64.39;102258.41;5047250;28;20507;-84
2022/05/20 01:31:05;;;;;;;0.10;0.10;;;;;;;16.18;64.36;102254.88;5056286;28;20024;-84
2022/05/20 01:33:36;;;;;;;0.00;0.00;;;;;;;16.17;64.50;102246.91;5056433;28;20035;-84
2022/05/20 01:36:05;;;;;;;0.10;0.10;;;;;;;16.14;64.88;102246.97;5045295;28;20373;-83
2022/05/20 01:38:31;;;;;;;0.00;0.00;;;;;;;16.08;64.75;102247.97;5067215;28;20126;-83
2022/05/20 01:41:09;;;;;;;0.00;0.00;;;;;;;16.12;64.91;102238.97;5052875;28;20040;-83
2022/05/20 01:43:59;;;;;;;0.10;0.10;;;;;;;16.07;64.52;102238.19;5048283;28;20043;-83
2022/05/20 01:52:04;;;;;;;0.10;0.10;;;;;;;16.00;65.03;102231.22;5114839;27;20144;-80
2022/05/20 01:57:39;;;;;;;0.00;0.00;;;;;;;16.00;65.01;102231.22;5087801;27;20411;-81
2022/05/20 02:05:33;;;;;;;1.35;1.00;;;;;;;15.92;64.86;102241.19;5062749;28;20402;-80
2022/05/20 02:08:07;;;;;;;0.25;0.25;;;;;;;15.87;64.69;102240.41;5033929;28;20029;-81
2022/05/20 02:10:39;;;;;;;0.10;0.10;;;;;;;15.82;64.78;102238.69;5034169;28;20080;-80
2022/05/20 02:13:08;;;;;;;0.32;0.28;;;;;;;15.80;64.64;102239.59;5036991;28;20033;-81
2022/05/20 02:15:40;;;;;;;0.10;0.10;;;;;;;15.80;64.84;102243.16;5043587;28;20026;-81
2022/05/20 02:18:11;;;;;;;0.10;0.10;;;;;;;15.77;64.63;102237.88;5040720;28;20078;-81
2022/05/20 02:23:22;;;;;;;0.00;0.00;;;;;;;15.71;64.77;102226.44;5125636;27;20761;-82
2022/05/20 02:25:55;;;;;;;0.17;0.17;;;;;;;15.69;64.85;102226.47;5087805;28;20074;-81
2022/05/20 02:28:27;;;;;;;0.10;0.10;;;;;;;15.69;65.26;102218.44;5086097;28;20089;-80
2022/05/20 02:30:54;;;;;;;;;;;;;;;15.83;64.66;102215.53;5090170;28;20516;-81
2022/05/20 02:33:23;;;;;;;0.00;0.00;;;;;;;15.69;64.92;102219.31;5090345;28;19988;-81
2022/05/20 02:35:49;;;;;;;0.00;0.00;;;;;;;15.66;65.13;102213.16;5089808;28;20096;-81
2022/05/20 02:38:20;;;;;;;0.10;0.10;;;;;;;15.67;65.38;102214.91;5088598;28;20032;-81
2022/05/20 02:40:49;;;;;;;0.10;0.10;;;;;;;15.66;65.30;102226.50;5088236;28;20025;-81
2022/05/20 02:43:17;;;;;;;0.10;0.10;;;;;;;15.63;65.07;102219.44;5085425;28;20469;-81
2022/05/20 02:45:46;;;;;;;0.00;0.00;;;;;;;15.61;64.89;102225.72;5089963;28;20040;-81
2022/05/20 02:48:15;;;;;;;0.10;0.10;;;;;;;15.58;65.09;102220.44;5085121;28;20028;-81
2022/05/20 02:50:41;;;;;;;0.13;0.13;;;;;;;15.55;65.07;102231.19;5086843;28;20036;-81
2022/05/20 02:53:07;;;;;;;0.10;0.10;;;;;;;15.52;65.19;102229.44;5088549;28;20032;-81
2022/05/20 02:55:34;;;;;;;0.08;0.08;;;;;;;15.50;65.22;102228.56;5088982;28;20490;-81
2022/05/20 02:58:00;;;;;;;0.10;0.10;;;;;;;15.44;65.28;102240.28;5088344;28;20031;-80
2022/05/20 03:05:58;;;;;;;0.03;0.03;;;;;;;15.40;65.14;102237.69;5087934;28;20044;-81
2022/05/20 03:08:25;;;;;;;0.08;0.08;;;;;;;15.39;65.34;102234.13;5088360;28;20456;-82
2022/05/20 03:10:51;;;;;;;0.10;0.10;;;;;;;15.37;65.20;102228.81;5088628;28;20043;-81
2022/05/20 03:13:18;;;;;;;0.10;0.10;;;;;;;15.35;65.12;102235.06;5089383;28;20109;-81
2022/05/20 03:15:44;;;;;;;0.03;0.03;;;;;;;15.34;65.43;102236.00;5088283;28;20078;-81
2022/05/20 03:18:12;;;;;;;0.20;0.20;;;;;;;15.37;65.33;102246.63;5088682;28;20033;-80
2022/05/20 03:20:41;;;;;;;0.05;0.05;;;;;;;15.37;65.39;102249.28;5085853;28;20036;-81
2022/05/20 03:23:09;;;;;;;0.08;0.08;;;;;;;15.40;65.58;102243.03;5082276;28;20024;-81
2022/05/20 03:25:38;;;;;;;0.10;0.10;;;;;;;15.43;65.81;102237.63;5088286;28;20056;-80
2022/05/20 03:28:04;;;;;;;0.30;0.30;;;;;;;15.45;65.88;102236.69;5089192;28;20032;-80
2022/05/20 03:30:31;;;;;;;0.20;0.20;;;;;;;15.49;65.86;102235.72;5089598;28;20406;-81
2022/05/20 03:32:57;;;;;;;1.65;0.50;;;;;;;15.51;65.77;102231.25;5083129;28;20025;-81
2022/05/20 03:35:23;;;;;;;0.00;0.00;;;;;;;15.51;65.85;102230.34;5074283;28;20028;-81
2022/05/20 03:37:49;;;;;;;0.10;0.10;;;;;;;15.50;65.44;102229.47;5072274;28;20039;-81
2022/05/20 03:40:15;;;;;;;0.10;0.10;;;;;;;15.50;65.38;102220.56;5073648;28;20036;-81
2022/05/20 03:42:41;;;;;;;0.88;0.75;;;;;;;15.50;65.46;102213.44;5071913;28;20105;-81
2022/05/20 03:45:09;;;;;;;0.40;0.40;;;;;;;15.52;65.61;102211.59;5073135;28;20036;-81
2022/05/20 03:47:38;;;;;;;0.35;0.35;;;;;;;15.55;65.70;102215.16;5072494;28;20036;-81
2022/05/20 03:50:05;;;;;;;0.00;0.00;;;;;;;15.57;65.72;102206.19;5067590;28;20036;-81
2022/05/20 03:52:31;;;;;;;0.10;0.10;;;;;;;15.58;65.56;102207.09;5071672;28;20028;-81
2022/05/20 03:54:58;;;;;;;0.10;0.10;;;;;;;15.57;65.60;102199.97;5072473;28;20036;-81
2022/05/20 03:57:24;;;;;;;0.00;0.00;;;;;;;15.58;65.66;102201.75;5073580;28;20516;-81
2022/05/20 03:59:50;;;;;;;0.32;0.32;;;;;;;15.57;65.63;102197.31;5073997;28;20078;-81
2022/05/20 04:02:17;;;;;;;0.65;0.65;;;;;;;15.57;65.29;102199.97;5071182;28;20020;-81
2022/05/20 04:04:46;;;;;;;0.10;0.10;;;;;;;15.57;65.18;102200.84;5072568;28;20036;-81
2022/05/20 04:07:16;;;;;;;0.20;0.20;;;;;;;15.59;65.44;102195.47;5073139;28;20036;-81
2022/05/20 04:09:44;;;;;;;0.10;0.10;;;;;;;15.56;65.23;102188.41;5074231;28;20036;-81
2022/05/20 04:12:34;;;;;;;0.20;0.20;;;;;;;15.59;65.24;102179.44;5073933;28;20021;-81
2022/05/20 04:15:02;;;;;;;0.10;0.10;;;;;;;15.52;64.83;102168.00;5073941;28;20401;-80
2022/05/20 04:17:28;;;;;;;0.00;0.00;;;;;;;15.47;64.72;102168.09;5073133;28;20178;-81
2022/05/20 04:19:54;;;;;;;0.00;0.00;;;;;;;15.44;64.69;102180.63;5073819;28;20032;-81
2022/05/20 04:22:29;;;;;;;0.00;0.00;;;;;;;15.44;64.97;102197.53;5072677;28;20028;-81
2022/05/20 04:24:55;;;;;;;0.10;0.10;;;;;;;15.42;65.12;102204.69;5074364;28;20665;-81
2022/05/20 04:27:22;;;;;;;0.10;0.10;;;;;;;15.43;65.04;102198.44;5073429;28;20119;-82
2022/05/20 04:29:48;;;;;;;0.57;0.57;;;;;;;15.44;65.59;102202.88;5074803;28;20058;-81
2022/05/20 04:32:15;;;;;;;0.10;0.10;;;;;;;15.44;65.56;102210.00;5074190;28;20024;-81
2022/05/20 04:34:41;;;;;;;0.40;0.40;;;;;;;15.46;65.24;102214.41;5073151;28;20024;-81
2022/05/20 04:37:07;;;;;;;0.10;0.10;;;;;;;15.44;65.29;102213.56;5073220;28;20039;-81
2022/05/20 04:39:34;;;;;;;0.00;0.00;;;;;;;15.46;65.54;102216.19;5074134;28;20100;-81
2022/05/20 04:47:33;;;;;;;0.10;0.10;;;;;;;15.47;66.00;102208.16;5074067;28;20036;-81
2022/05/20 04:50:00;;;;;;;0.82;0.82;;;;;;;15.50;65.86;102210.78;5073384;28;20111;-82
2022/05/20 04:52:26;;;;;;;0.50;0.30;;;;;;;15.52;65.95;102211.59;5071026;28;20498;-84
2022/05/20 04:54:53;;;;;;;0.43;0.43;;;;;;;15.55;65.81;102215.16;5064868;28;20037;-80
2022/05/20 04:57:44;;;;;;;0.35;0.35;;;;;;;15.65;65.86;102209.59;5072533;28;20029;-80
2022/05/20 05:02:55;;;;;;;0.50;0.50;;;;;;;15.64;66.47;102210.50;5070090;28;20409;-82
2022/05/20 05:05:25;;;;;;;1.08;0.82;;;;;;;15.72;66.25;102214.84;5053205;28;20045;-81
2022/05/20 05:07:53;;;;;;;0.10;0.10;;;;;;;15.77;66.48;102218.28;5027592;28;20026;-80
2022/05/20 05:10:23;;;;;;;7.35;0.77;;;;;;;15.82;66.60;102217.31;5037212;28;20033;-81
2022/05/20 05:12:50;;;;;;;3.03;1.02;;;;;;;15.85;67.11;102214.59;5032923;28;20029;-81
2022/05/20 05:15:17;;;;;;;0.10;0.10;;;;;;;15.92;67.37;102220.66;5033172;28;20529;-81
2022/05/20 05:18:16;;;;;;;0.20;0.20;;;;;;;15.99;67.38;102218.78;5035913;28;20047;-80
2022/05/20 05:20:32;;;;;;;1.27;1.23;;;;;;;16.07;66.95;102203.44;5033499;28;20029;-80
2022/05/20 05:22:58;;;;;;;0.65;0.65;;;;;;;16.15;67.08;102205.97;5038149;28;20048;-81
2022/05/20 05:25:27;;;;;;;0.20;0.20;;;;;;;16.23;66.84;102200.44;5044999;28;20029;-81
2022/05/20 05:27:54;;;;;;;0.45;0.45;;;;;;;16.26;67.28;102208.38;5033319;28;20036;-80
2022/05/20 05:30:21;;;;;;;1.55;1.55;;;;;;;16.32;67.11;102202.91;5031624;28;20108;-81
2022/05/20 05:32:50;;;;;;;1.02;0.90;;;;;;;16.32;66.92;102201.13;5034242;28;20088;-80
2022/05/20 05:35:20;;;;;;;0.85;0.85;;;;;;;16.40;67.02;102200.03;5027460;28;20033;-81
2022/05/20 05:37:47;;;;;;;0.55;0.55;;;;;;;16.43;66.76;102200.84;5030738;28;20046;-81
2022/05/20 05:40:17;;;;;;;0.10;0.10;;;;;;;16.53;66.90;102203.34;5030423;28;20069;-81
2022/05/20 05:42:43;;;;;;;0.20;0.20;;;;;;;16.57;66.86;102203.22;5028045;28;20072;-81
2022/05/20 05:45:12;;;;;;;1.45;0.70;;;;;;;16.62;66.58;102212.03;5026585;28;20034;-80
2022/05/20 05:47:38;;;;;;;0.25;0.25;;;;;;;16.69;66.78;102212.75;5031006;28;20522;-82
2022/05/20 05:50:05;;;;;;;1.75;1.48;;;;;;;16.73;66.49;102203.72;5035616;28;20041;-80
2022/05/20 05:52:32;;;;;;;0.98;0.98;;;;;;;16.80;66.45;102200.00;5027598;28;20171;-81
2022/05/20 05:55:01;;;;;;;1.20;0.88;;;;;;;16.84;66.97;102199.94;5036705;28;20513;-82
2022/05/20 05:57:28;;;;;;;0.73;0.68;;;;;;;16.86;67.12;102198.97;5031939;28;20100;-82
2022/05/20 05:59:55;;;;;;;0.50;0.50;;;;;;;16.96;67.17;102199.66;5029470;28;20391;-82
2022/05/20 06:02:21;;;;;;;0.20;0.20;;;;;;;17.06;66.75;102197.59;5029944;28;20508;-82
2022/05/20 06:04:49;;;;;;;0.75;0.75;;;;;;;17.18;67.14;102191.06;5031639;28;20037;-83
2022/05/20 06:07:15;;;;;;;1.75;0.75;;;;;;;17.26;66.88;102186.41;5025423;28;20086;-83
2022/05/20 06:09:42;;;;;;;1.50;1.40;;;;;;;17.34;66.96;102173.66;5034864;28;20057;-82
2022/05/20 06:12:09;;;;;;;0.10;0.10;;;;;;;17.39;66.52;102177.09;5032345;28;20116;-84
2022/05/20 06:14:35;;;;;;;0.52;0.52;;;;;;;17.47;66.76;102176.91;5019187;28;20107;-84
2022/05/20 06:17:04;;;;;;;0.10;0.10;;;;;;;17.60;66.74;102180.09;5021415;28;20033;-84
2022/05/20 06:19:33;;;;;;;1.13;1.13;;;;;;;17.70;66.66;102170.88;5021589;28;20081;-84
2022/05/20 06:21:59;;;;;;;0.20;0.20;;;;;;;17.88;66.03;102172.16;5027465;28;20034;-84
2022/05/20 06:24:25;;;;;;;0.50;0.50;;;;;;;18.01;66.13;102170.00;5024066;28;20041;-84
2022/05/20 06:26:54;;;;;;;0.80;0.80;;;;;;;18.16;66.06;102178.53;5020968;28;20030;-85
2022/05/20 06:29:20;;;;;;;0.70;0.55;;;;;;;18.29;65.70;102174.50;5020040;28;20040;-84
2022/05/20 06:31:49;;;;;;;1.15;1.15;;;;;;;18.42;65.11;102165.16;5023442;28;20030;-85
2022/05/20 06:34:15;;;;;;;1.30;1.20;;;;;;;18.56;64.82;102167.38;5017004;28;20044;-84
2022/05/20 06:40:03;;;;;;;0.40;0.40;;;;;;;18.81;63.82;102173.78;5016204;28;20069;-85
2022/05/20 06:42:19;;;;;;;0.20;0.20;;;;;;;18.87;62.48;102165.50;5018645;28;20036;-85
2022/05/20 06:44:45;;;;;;;0.17;0.17;;;;;;;19.02;63.26;102165.00;5020876;28;20073;-85
2022/05/20 06:47:14;;;;;;;0.57;0.57;;;;;;;19.06;62.80;102166.66;5016872;28;20079;-85
2022/05/20 06:49:40;;;;;;;0.68;0.40;;;;;;;19.10;61.56;102161.19;5016421;28;20129;-85
2022/05/20 06:52:07;;;;;;;0.10;0.10;;;;;;;19.13;60.69;102171.81;5015780;28;20030;-85
2022/05/20 06:54:33;;;;;;;1.65;1.55;;;;;;;19.14;60.69;102178.94;5018610;28;20068;-85
2022/05/20 06:56:59;;;;;;;0.17;0.17;;;;;;;19.10;59.76;102166.56;5022458;28;20057;-84
2022/05/20 06:59:25;;;;;;;0.93;0.90;;;;;;;19.10;59.56;102156.66;5017703;28;20022;-84
2022/05/20 07:01:52;;;;;;;0.35;0.35;;;;;;;19.11;60.11;102155.75;5017951;28;20395;-84
2022/05/20 07:04:18;;;;;;;0.10;0.10;;;;;;;19.16;60.78;102155.59;5017906;28;20037;-83
2022/05/20 07:06:44;;;;;;;3.53;0.68;;;;;;;19.15;60.18;102137.72;5018122;28;20026;-84
2022/05/20 07:09:10;;;;;;;0.15;0.15;;;;;;;19.23;60.78;102143.72;5029200;28;20033;-84
2022/05/20 07:11:36;;;;;;;0.30;0.30;;;;;;;19.27;60.52;102148.03;5030386;28;20038;-83
2022/05/20 07:14:03;;;;;;;0.22;0.22;;;;;;;19.22;59.08;102144.63;5027295;28;20038;-85
2022/05/20 07:16:30;;;;;;;0.63;0.63;;;;;;;19.22;58.95;102148.19;5020731;28;20057;-85
2022/05/20 07:18:57;;;;;;;1.65;1.55;;;;;;;19.32;59.20;102147.88;5014619;28;20131;-85
2022/05/20 07:21:23;;;;;;;0.40;0.40;;;;;;;19.38;59.39;102145.81;5016275;28;20220;-85
2022/05/20 07:23:49;;;;;;;0.20;0.20;;;;;;;19.44;59.39;102143.84;5017330;28;20421;-85
2022/05/20 07:26:19;;;;;;;0.85;0.70;;;;;;;19.58;59.45;102130.78;5018715;28;20056;-84
2022/05/20 07:28:45;;;;;;;0.10;0.10;;;;;;;19.62;59.43;102124.34;5023543;28;20120;-84
2022/05/20 07:31:12;;;;;;;1.13;1.02;;;;;;;19.73;59.29;102124.81;5022499;28;20093;-84
2022/05/20 07:33:38;;;;;;;0.20;0.20;;;;;;;19.76;57.72;102120.25;5019643;28;20034;-84
2022/05/20 07:36:06;;;;;;;0.55;0.30;;;;;;;19.85;58.15;102111.84;5020484;28;20380;-84
2022/05/20 07:38:32;;;;;;;0.20;0.20;;;;;;;19.98;58.28;102102.38;5020519;28;20040;-84
2022/05/20 07:41:01;;;;;;;0.30;0.30;;;;;;;20.13;57.86;102094.63;5018678;28;20079;-84
2022/05/20 07:43:27;;;;;;;0.10;0.10;;;;;;;20.20;57.25;102090.78;5020535;28;20038;-84
2022/05/20 07:45:54;;;;;;;0.08;0.08;;;;;;;20.34;56.82;102096.44;5018922;28;20030;-84
2022/05/20 07:48:21;;;;;;;0.35;0.35;;;;;;;20.55;57.45;102085.72;5020890;28;20073;-85
2022/05/20 07:50:53;;;;;;;0.20;0.20;;;;;;;20.74;57.29;102079.59;5019124;28;20041;-85
2022/05/20 07:53:21;;;;;;;3.25;0.85;;;;;;;20.85;55.39;102070.09;5020470;28;20049;-85
2022/05/20 07:55:54;;;;;;;0.10;0.10;;;;;;;21.04;56.07;102066.56;5022799;28;20030;-84
2022/05/20 07:58:26;;;;;;;0.30;0.30;;;;;;;21.07;54.67;102057.47;5022411;28;20034;-85
2022/05/20 08:00:58;;;;;;;0.30;0.30;;;;;;;21.05;54.22;102059.34;5017640;28;20508;-85
2022/05/20 08:06:14;;;;;;;0.35;0.35;;;;;;;21.09;52.88;102058.28;5014848;28;20048;-85
2022/05/20 08:08:41;;;;;;;0.85;0.85;;;;;;;21.07;52.69;102054.78;5016065;28;20497;-85
2022/05/20 08:11:10;;;;;;;0.20;0.20;;;;;;;21.20;54.32;102050.59;5022236;28;20037;-84
2022/05/20 08:13:39;;;;;;;1.45;0.98;;;;;;;21.20;53.25;102045.22;5014372;28;20088;-84
2022/05/20 08:16:05;;;;;;;0.10;0.10;;;;;;;21.32;53.64;102033.84;5016627;28;20083;-85
2022/05/20 08:18:32;;;;;;;0.75;0.75;;;;;;;21.43;52.88;102036.06;5017470;28;20060;-86
2022/05/20 08:20:59;;;;;;;0.20;0.20;;;;;;;21.46;53.42;102046.69;5018533;28;20136;-84
2022/05/20 08:23:26;;;;;;;0.10;0.10;;;;;;;21.67;52.62;102043.06;5019192;28;20103;-85
2022/05/20 08:25:52;;;;;;;0.10;0.10;;;;;;;21.78;50.42;102032.63;5022442;28;20649;-84
2022/05/20 08:28:19;;;;;;;0.15;0.15;;;;;;;22.01;51.29;102036.03;5019044;28;20049;-85
2022/05/20 08:30:48;;;;;;;5.57;1.17;;;;;;;22.13;49.79;102036.31;5018273;28;20049;-85
2022/05/20 08:33:14;;;;;;;0.10;0.10;;;;;;;22.30;50.59;102027.34;5018771;28;20029;-85
2022/05/20 08:35:41;;;;;;;0.08;0.08;;;;;;;22.43;50.43;102010.56;5018038;28;20465;-85
2022/05/20 08:38:33;;;;;;;0.20;0.20;;;;;;;22.51;50.41;102007.47;5018046;28;20585;-85
2022/05/20 08:41:17;;;;;;;0.10;0.10;;;;;;;22.68;50.63;102010.16;5018183;28;20105;-84
2022/05/20 08:43:48;;;;;;;0.30;0.30;;;;;;;22.94;50.67;102003.38;5017785;28;20404;-85
2022/05/20 08:46:25;;;;;;;0.08;0.08;;;;;;;23.09;49.80;101973.72;5018586;28;20512;-85
2022/05/20 08:49:23;;;;;;;0.35;0.35;;;;;;;23.01;48.06;101963.34;5019006;28;20037;-85
2022/05/20 08:51:56;;;;;;;0.50;0.35;;;;;;;23.15;49.02;101957.19;5032353;28;20101;-85
2022/05/20 08:54:29;;;;;;;0.20;0.20;;;;;;;23.26;48.99;101943.09;5018709;28;20105;-85
2022/05/20 08:56:59;;;;;;;0.10;0.10;;;;;;;23.35;48.95;101941.72;5018987;28;20034;-85
2022/05/20 08:59:34;;;;;;;0.20;0.20;;;;;;;23.52;49.84;101935.34;5019351;28;20046;-85
2022/05/20 09:02:09;;;;;;;0.10;0.10;;;;;;;23.58;48.53;101918.75;5018767;28;20388;-85
2022/05/20 09:04:39;;;;;;;0.10;0.10;;;;;;;23.67;47.77;101914.66;5028451;28;20037;-86
2022/05/20 09:07:12;;;;;;;0.10;0.10;;;;;;;23.83;49.28;101917.31;5037100;28;20049;-85
2022/05/20 09:12:33;;;;;;;0.70;0.70;;;;;;;23.80;46.70;101912.97;5128589;27;20383;-83
2022/05/20 09:18:00;;;;;;;0.30;0.28;;;;;;;23.78;46.19;101914.03;5122195;28;20058;-85
2022/05/20 09:20:27;;;;;;;0.00;0.00;;;;;;;23.86;47.73;101901.78;5110627;28;20028;-85
2022/05/20 09:22:58;;;;;;;0.10;0.10;;;;;;;23.87;48.09;101908.06;5108393;28;20502;-85
2022/05/20 09:25:27;;;;;;;0.00;0.00;;;;;;;23.84;46.23;101906.41;5121204;28;20128;-82
2022/05/20 09:28:14;;;;;;;0.03;0.03;;;;;;;23.90;46.29;101911.44;5124168;27;20052;-82
2022/05/20 09:30:44;;;;;;;0.03;0.03;;;;;;;23.91;47.46;101901.47;5133139;27;20028;-83
2022/05/20 09:33:15;;;;;;;0.43;0.43;;;;;;;24.03;46.44;101908.03;5136627;27;20040;-84
2022/05/20 09:35:52;;;;;;;0.00;0.00;;;;;;;24.09;43.08;101895.94;5115193;27;20035;-84
2022/05/20 09:38:37;;;;;;;0.10;0.10;;;;;;;24.27;44.82;101883.16;5112557;28;20047;-84
2022/05/20 09:41:14;;;;;;;0.10;0.10;;;;;;;24.22;44.48;101881.59;5117153;28;20031;-84
2022/05/20 09:43:43;;;;;;;0.20;0.20;;;;;;;24.20;46.25;101875.41;5117449;28;20058;-84
2022/05/20 09:46:32;;;;;;;0.63;0.63;;;;;;;24.36;44.30;101877.13;5115965;28;20048;-84
2022/05/20 09:49:05;;;;;;;0.38;0.38;;;;;;;24.38;45.68;101870.66;5113013;28;20023;-84
2022/05/20 09:51:54;;;;;;;0.17;0.17;;;;;;;24.51;46.51;101870.78;5122871;27;20028;-84
2022/05/20 09:57:23;;;;;;;1.27;0.28;;;;;;;24.39;45.48;101836.34;5073314;28;20360;-82
2022/05/20 09:59:58;;;;;;;1.73;1.38;;;;;;;24.41;44.88;101826.25;5072682;28;20029;-84
2022/05/20 10:06:18;;;;;;;0.00;0.00;;;;;;;24.51;45.99;101803.06;5074548;28;20364;-85
2022/05/20 10:09:01;;;;;;;0.10;0.10;;;;;;;24.57;45.44;101792.78;5051567;28;20041;-85
2022/05/20 10:14:56;;;;;;;0.10;0.10;;;;;;;24.71;46.37;101776.53;5115054;27;20434;-86
2022/05/20 10:17:59;;;;;;;0.10;0.10;;;;;;;24.85;45.77;101798.19;5070119;28;20041;-86
2022/05/20 10:21:00;;;;;;;0.10;0.10;;;;;;;24.94;47.07;101779.59;5076128;28;20048;-84
2022/05/20 10:32:43;;;;;;;0.40;0.40;;;;;;;25.26;43.88;101703.31;5111403;28;20036;-84
2022/05/20 10:34:59;;;;;;;0.10;0.10;;;;;;;25.32;44.97;101683.91;5113468;28;20032;-83
2022/05/20 10:43:22;;;;;;;0.10;0.10;;;;;;;25.58;44.09;101657.69;5074144;28;20358;-84
2022/05/20 10:49:11;;;;;;;0.30;0.30;;;;;;;25.65;44.77;101641.84;5047502;28;20044;-84
2022/05/20 11:03:11;;;;;;;0.10;0.10;;;;;;;25.30;44.78;101608.06;5114673;27;20403;-84
2022/05/20 11:06:10;;;;;;;0.35;0.35;;;;;;;25.25;44.33;101590.41;5121285;28;20096;-89
2022/05/20 11:09:03;;;;;;;0.05;0.05;;;;;;;25.38;44.79;101571.44;5097886;28;20138;-85
2022/05/20 11:11:50;;;;;;;0.20;0.20;;;;;;;25.44;44.03;101550.16;5109680;28;20046;-85
2022/05/20 11:19:57;;;;;;;0.10;0.10;;;;;;;25.75;43.76;101534.34;5067296;28;20049;-85
2022/05/20 11:22:45;;;;;;;0.10;0.10;;;;;;;26.04;44.70;101528.59;5066500;28;20086;-85
2022/05/20 11:25:35;;;;;;;0.52;0.52;;;;;;;26.23;43.27;101524.53;5070308;28;20036;-85
2022/05/20 11:31:39;;;;;;;0.45;0.35;;;;;;;26.48;41.49;101497.22;5053548;27;21148;-83
2022/05/20 11:34:38;;;;;;;0.75;0.75;;;;;;;26.34;42.72;101489.25;5047676;28;20101;-83
2022/05/20 11:40:12;;;;;;;0.10;0.10;;;;;;;25.60;43.57;101483.94;5135262;27;1188986;-83
2022/05/20 11:46:07;;;;;;;0.47;0.47;;;;;;;24.89;44.20;101453.78;5094421;27;20410;-84
2022/05/20 11:49:01;;;;;;;0.00;0.00;;;;;;;24.68;44.13;101443.47;5073481;28;20048;-82
2022/05/20 11:51:51;;;;;;;0.22;0.22;;;;;;;24.45;45.26;101420.63;5075290;28;20119;-84
2022/05/20 11:57:22;;;;;;;0.00;0.00;;;;;;;24.11;46.05;101423.84;5035358;27;3131841;-83
2022/05/20 12:00:13;;;;;;;0.10;0.10;;;;;;;23.94;46.65;101429.53;5124390;27;20039;-84
2022/05/20 12:02:57;;;;;;;0.35;0.35;;;;;;;23.76;47.26;101456.81;5132838;27;20110;-84
2022/05/20 12:05:33;;;;;;;1.45;0.77;;;;;;;23.58;47.48;101465.19;5133485;28;20043;-84
2022/05/20 12:08:02;;;;;;;0.10;0.10;;;;;;;23.42;48.35;101475.25;5133713;28;20023;-83
2022/05/20 12:16:10;;;;;;;0.10;0.10;;;;;;;22.24;53.70;101587.69;5151648;27;20776;-80
2022/05/20 12:24:34;;;;;;;0.10;0.10;;;;;;;20.82;60.04;101588.13;5109489;28;20044;-77
2022/05/20 12:27:02;;;;;;;0.10;0.10;;;;;;;20.60;60.24;101565.88;5109379;28;20028;-77
2022/05/20 12:48:28;;;;;;;0.10;0.10;;;;;;;19.86;63.37;101519.28;5098159;28;20401;-81
2022/05/20 12:51:05;;;;;;;0.10;0.10;;;;;;;19.84;62.91;101515.81;5071192;28;20025;-84
2022/05/20 12:53:34;;;;;;;0.32;0.32;;;;;;;19.75;62.67;101509.03;5070007;28;20059;-83
2022/05/20 12:56:00;;;;;;;0.10;0.10;;;;;;;19.74;62.77;101501.91;5070258;28;20123;-84
2022/05/20 12:58:30;;;;;;;0.05;0.05;;;;;;;19.78;63.08;101481.13;5070807;28;20055;-83
2022/05/20 13:01:00;;;;;;;0.00;0.00;;;;;;;19.77;62.06;101482.06;5069551;28;20028;-84
2022/05/20 13:03:41;;;;;;;0.00;0.00;;;;;;;19.80;63.51;101471.13;5076739;28;20120;-82
2022/05/20 13:06:20;;;;;;;1.30;0.75;;;;;;;19.78;63.35;101438.97;5074397;22;20045;-74
2022/05/20 13:08:50;;;;;;;0.10;0.10;;;;;;;19.68;64.03;101475.31;5068496;28;20055;-74
2022/05/20 13:11:19;;;;;;;0.10;0.10;;;;;;;19.67;64.19;101481.63;5068171;28;20445;-74
2022/05/20 13:13:49;;;;;;;0.20;0.20;;;;;;;19.59;64.83;101492.75;5068826;28;20029;-75
2022/05/20 13:16:15;;;;;;;0.10;0.10;;;;;;;19.55;63.90;101501.88;5064418;28;20029;-75
2022/05/20 13:18:55;;;;;;;0.40;0.40;;;;;;;19.52;63.49;101491.28;5046337;28;20029;-75
2022/05/20 13:21:22;;;;;;;0.10;0.10;;;;;;;19.44;64.25;101480.03;5045987;28;20098;-75
2022/05/20 13:23:53;;;;;;;0.00;0.00;;;;;;;19.46;62.92;101456.66;5046731;28;20446;-75
2022/05/20 13:29:18;;;;;;;0.65;0.57;;;;;;;19.55;64.58;101438.28;5088951;27;20902;-75
2022/05/20 13:31:44;;;;;;;0.38;0.38;;;;;;;19.48;64.68;101446.72;5086185;28;20039;-76
2022/05/20 13:34:12;;;;;;;0.00;0.00;;;;;;;19.44;64.18;101450.47;5088898;28;20024;-75
2022/05/20 13:36:44;;;;;;;0.10;0.10;;;;;;;19.39;62.80;101469.53;5084684;28;20070;-75
2022/05/20 13:39:16;;;;;;;0.10;0.10;;;;;;;19.36;63.88;101470.50;5087714;28;20509;-76
2022/05/20 13:41:44;;;;;;;0.73;0.73;;;;;;;19.26;63.80;101493.38;5070024;28;20450;-76
2022/05/20 13:44:10;;;;;;;0.63;0.63;;;;;;;19.02;65.11;101498.94;5084681;28;20374;-75
2022/05/20 13:49:35;;;;;;;0.88;0.38;;;;;;;18.64;66.57;101469.28;5088302;28;20051;-76
2022/05/20 13:52:08;;;;;;;0.10;0.10;;;;;;;18.62;66.63;101462.22;5084081;28;20028;-76
2022/05/20 13:54:41;;;;;;;0.60;0.60;;;;;;;18.53;66.48;101467.06;5078300;28;20028;-76
2022/05/20 13:57:13;;;;;;;0.00;0.00;;;;;;;18.40;66.67;101471.22;5079381;28;20036;-76